createdAt,value
2023-05-02T00:02:43.399Z,16.05
2023-05-02T00:07:45.112Z,12.57
2023-05-02T00:12:46.508Z,6.68
2023-05-02T00:17:48.121Z,9.20
2023-05-02T00:22:49.665Z,10.77
2023-05-02T00:27:51.364Z,12.05
2023-05-02T00:32:54.337Z,11.43
2023-05-02T00:37:55.864Z,10.65
2023-05-02T00:42:57.329Z,12.35
2023-05-02T00:47:58.763Z,10.38
2023-05-02T00:53:00.571Z,12.57
2023-05-02T00:58:03.579Z,8.23
2023-05-02T01:03:12.857Z,7.30
2023-05-02T01:08:20.286Z,11.52
2023-05-02T01:13:24.319Z,5.78
2023-05-02T01:18:28.386Z,12.43
2023-05-02T01:23:48.468Z,10.60
2023-05-02T01:33:51.839Z,9.82
2023-05-02T01:38:54.463Z,6.18
2023-05-02T01:43:57.415Z,11.20
2023-05-02T01:48:59.418Z,9.48
2023-05-02T01:54:02.353Z,8.68
2023-05-02T01:59:08.866Z,7.20
2023-05-02T02:04:11.435Z,12.75
2023-05-02T02:09:12.967Z,8.88
2023-05-02T02:14:19.251Z,14.32
2023-05-02T02:19:21.140Z,14.18
2023-05-02T02:24:22.853Z,5.88
2023-05-02T02:29:24.440Z,8.15
2023-05-02T02:34:25.862Z,10.98
2023-05-02T02:39:47.978Z,11.15
2023-05-02T02:45:00.877Z,9.70
2023-05-02T02:50:15.997Z,7.43
2023-05-02T02:55:23.558Z,7.63
2023-05-02T03:00:26.023Z,17.75
2023-05-02T03:05:27.481Z,11.45
2023-05-02T03:10:28.873Z,11.68
2023-05-02T03:15:39.420Z,14.48
2023-05-02T03:20:41.971Z,18.98
2023-05-02T03:25:43.616Z,14.50
2023-05-02T03:30:44.969Z,12.38
2023-05-02T03:35:46.342Z,18.50
2023-05-02T03:40:47.863Z,13.13
2023-05-02T03:45:49.274Z,17.63
2023-05-02T03:50:50.672Z,13.57
2023-05-02T03:55:52.529Z,13.60
2023-05-02T04:00:54.954Z,11.82
2023-05-02T04:05:56.366Z,8.02
2023-05-02T04:10:57.746Z,13.80
2023-05-02T04:15:59.087Z,11.18
2023-05-02T04:21:00.537Z,11.63
2023-05-02T04:26:01.934Z,9.07
2023-05-02T04:31:04.279Z,9.45
2023-05-02T04:36:06.014Z,8.18
2023-05-02T04:41:08.822Z,4.95
2023-05-02T04:46:11.387Z,6.75
2023-05-02T04:51:14.851Z,17.38
2023-05-02T04:56:17.836Z,9.40
2023-05-02T05:01:19.357Z,14.13
2023-05-02T05:06:21.021Z,10.48
2023-05-02T05:11:22.669Z,13.05
2023-05-02T05:16:24.220Z,9.73
2023-05-02T05:21:25.683Z,8.20
2023-05-02T05:26:27.186Z,6.10
2023-05-02T05:31:28.745Z,11.43
2023-05-02T05:36:32.738Z,9.80
2023-05-02T05:41:35.201Z,10.63
2023-05-02T05:46:36.746Z,11.35
2023-05-02T05:51:38.189Z,10.27
2023-05-02T05:56:39.584Z,10.63
2023-05-02T06:01:41.209Z,8.80
2023-05-02T06:06:42.829Z,11.20
2023-05-02T06:11:44.293Z,9.70
2023-05-02T06:16:45.764Z,10.35
2023-05-02T06:21:47.588Z,9.50
2023-05-02T06:26:49.020Z,7.22
2023-05-02T06:31:51.423Z,9.48
2023-05-02T06:36:56.810Z,7.85
2023-05-02T06:41:58.476Z,6.38
2023-05-02T06:47:00.179Z,7.80
2023-05-02T06:52:01.665Z,9.65
2023-05-02T06:57:03.113Z,8.82
2023-05-02T07:02:05.342Z,9.25
2023-05-02T07:07:07.162Z,9.70
2023-05-02T07:12:08.642Z,9.13
2023-05-02T07:17:10.306Z,5.07
2023-05-02T07:22:11.967Z,11.18
2023-05-02T07:27:13.443Z,10.38
2023-05-02T07:32:14.969Z,8.15
2023-05-02T07:37:16.476Z,10.48
2023-05-02T07:42:17.907Z,9.55
2023-05-02T07:47:19.338Z,7.43
2023-05-02T07:52:20.910Z,8.55
2023-05-02T07:57:22.338Z,16.90
2023-05-02T08:02:24.091Z,8.80
2023-05-02T08:07:26.127Z,8.88
2023-05-02T08:12:27.767Z,7.47
2023-05-02T08:17:29.354Z,10.07
2023-05-02T08:22:31.469Z,10.60
2023-05-02T08:27:35.423Z,13.00
2023-05-02T08:32:37.265Z,9.35
2023-05-02T08:37:39.525Z,9.68
2023-05-02T08:42:44.894Z,11.00
2023-05-02T08:47:47.211Z,8.60
2023-05-02T08:52:49.547Z,12.18
2023-05-02T08:57:50.963Z,12.52
2023-05-02T09:02:53.170Z,10.93
2023-05-02T09:07:54.663Z,13.50
2023-05-02T09:12:56.110Z,10.70
2023-05-02T09:17:57.546Z,12.45
2023-05-02T09:22:58.992Z,11.70
2023-05-02T09:28:01.901Z,11.55
2023-05-02T09:33:03.556Z,9.23
2023-05-02T09:38:16.830Z,12.77
2023-05-02T09:43:19.077Z,13.20
2023-05-02T09:48:20.501Z,8.68
2023-05-02T09:53:21.931Z,13.73
2023-05-02T09:58:24.556Z,10.75
2023-05-02T10:03:27.689Z,11.38
2023-05-02T10:08:29.101Z,7.85
2023-05-02T10:13:32.674Z,8.15
2023-05-02T10:18:43.225Z,9.77
2023-05-02T10:23:44.866Z,8.23
2023-05-02T10:28:46.419Z,10.13
2023-05-02T10:33:50.704Z,9.20
2023-05-02T10:38:53.217Z,9.15
2023-05-02T10:43:54.794Z,8.93
2023-05-02T10:49:03.713Z,8.13
2023-05-02T10:54:18.154Z,8.07
2023-05-02T10:59:36.346Z,7.10
2023-05-02T11:04:56.548Z,8.10
2023-05-02T11:10:18.245Z,7.47
2023-05-02T11:15:28.909Z,9.55
2023-05-02T11:20:31.454Z,6.68
2023-05-02T11:25:34.474Z,6.22
2023-05-02T11:30:39.931Z,10.15
2023-05-02T11:35:42.273Z,4.78
2023-05-02T11:40:53.974Z,7.88
2023-05-02T11:45:56.533Z,7.85
2023-05-02T11:51:02.272Z,6.15
2023-05-02T11:56:04.638Z,5.00
2023-05-02T12:01:15.976Z,7.50
2023-05-02T12:06:21.052Z,6.13
2023-05-02T12:11:23.441Z,4.85
2023-05-02T12:16:24.999Z,4.55
2023-05-02T12:21:35.851Z,7.13
2023-05-02T12:26:38.609Z,8.93
2023-05-02T12:31:40.250Z,5.53
2023-05-02T12:36:45.426Z,5.90
2023-05-02T12:41:47.309Z,7.38
2023-05-02T12:46:59.693Z,5.72
2023-05-02T12:52:01.331Z,5.85
2023-05-02T12:57:03.060Z,6.70
2023-05-02T13:02:04.693Z,6.70
2023-05-02T13:07:06.347Z,7.30
2023-05-02T13:12:08.035Z,5.75
2023-05-02T13:17:09.958Z,4.78
2023-05-02T13:22:11.785Z,7.95
2023-05-02T13:27:13.207Z,5.50
2023-05-02T13:32:14.613Z,5.82
2023-05-02T13:37:16.248Z,7.47
2023-05-02T13:42:17.642Z,5.22
2023-05-02T13:47:19.124Z,6.68
2023-05-02T13:52:20.642Z,4.00
2023-05-02T13:57:22.077Z,6.50
2023-05-02T14:02:23.719Z,6.43
2023-05-02T14:07:25.214Z,7.05
2023-05-02T14:12:26.842Z,7.03
2023-05-02T14:17:28.274Z,4.32
2023-05-02T14:22:29.808Z,5.07
2023-05-02T14:27:31.253Z,6.38
2023-05-02T14:32:32.748Z,6.50
2023-05-02T14:37:34.215Z,4.60
2023-05-02T14:42:35.896Z,4.13
2023-05-02T14:47:37.439Z,4.05
2023-05-02T14:52:39.042Z,4.28
2023-05-02T14:57:40.567Z,4.38
2023-05-02T15:02:42.356Z,6.07
2023-05-02T15:07:44.108Z,3.92
2023-05-02T15:12:46.893Z,4.57
2023-05-02T15:17:48.402Z,4.35
2023-05-02T15:22:49.838Z,3.10
2023-05-02T15:27:51.256Z,4.95
2023-05-02T15:32:53.103Z,3.92
2023-05-02T15:37:55.687Z,5.95
2023-05-02T15:42:57.113Z,4.35
2023-05-02T15:47:58.554Z,6.43
2023-05-02T15:53:00.065Z,4.72
2023-05-02T15:58:01.549Z,5.13
2023-05-02T16:03:04.048Z,4.70
2023-05-02T16:08:06.091Z,5.93
2023-05-02T16:13:07.541Z,4.43
2023-05-02T16:18:08.991Z,6.07
2023-05-02T16:23:10.580Z,5.65
2023-05-02T16:28:11.968Z,3.47
2023-05-02T16:33:13.785Z,2.47
2023-05-02T16:38:15.311Z,4.03
2023-05-02T16:43:17.025Z,4.55
2023-05-02T16:48:19.366Z,5.95
2023-05-02T16:53:21.016Z,4.97
2023-05-02T16:58:22.898Z,5.05
2023-05-02T17:03:24.325Z,3.47
2023-05-02T17:08:25.764Z,8.18
2023-05-02T17:13:27.256Z,4.30
2023-05-02T17:18:28.915Z,5.75
2023-05-02T17:23:30.570Z,10.48
2023-05-02T17:28:32.404Z,7.60
2023-05-02T17:33:33.926Z,6.78
2023-05-02T17:38:35.404Z,6.93
2023-05-02T17:43:38.055Z,7.97
2023-05-02T17:48:42.432Z,6.25
2023-05-02T17:53:43.924Z,4.60
2023-05-02T17:58:45.408Z,6.72
2023-05-02T18:03:48.171Z,7.50
2023-05-02T18:08:49.804Z,4.28
2023-05-02T18:13:51.435Z,8.50
2023-05-02T18:18:53.622Z,6.68
2023-05-02T18:23:56.916Z,7.35
2023-05-02T18:28:58.605Z,12.13
2023-05-02T18:34:00.127Z,12.98
2023-05-02T18:39:01.826Z,7.13
2023-05-02T18:44:07.020Z,5.80
2023-05-02T18:49:09.463Z,12.23
2023-05-02T18:54:10.939Z,10.60
2023-05-02T18:59:12.464Z,11.13
2023-05-02T19:04:13.876Z,13.65
2023-05-02T19:09:15.821Z,14.35
2023-05-02T19:14:17.261Z,7.28
2023-05-02T19:19:18.752Z,4.15
2023-05-02T19:24:21.218Z,3.72
2023-05-02T19:29:23.521Z,7.63
2023-05-02T19:34:24.945Z,7.28
2023-05-02T19:39:26.493Z,4.43
2023-05-02T19:44:27.900Z,6.25
2023-05-02T19:49:29.303Z,6.28
2023-05-02T19:54:31.093Z,5.38
2023-05-02T19:59:32.527Z,7.20
2023-05-02T20:04:33.926Z,12.00
2023-05-02T20:09:35.568Z,23.65
2023-05-02T20:14:36.942Z,30.23
2023-05-02T20:19:38.341Z,19.52
2023-05-02T20:24:39.782Z,18.15
2023-05-02T20:29:41.484Z,8.95
2023-05-02T20:34:42.925Z,7.50
2023-05-02T20:39:44.393Z,9.13
2023-05-02T20:44:47.570Z,7.97
2023-05-02T20:49:49.129Z,5.38
2023-05-02T20:54:53.325Z,6.15
2023-05-02T20:59:54.792Z,8.68
2023-05-02T21:04:56.359Z,6.32
2023-05-02T21:09:57.925Z,5.68
2023-05-02T21:14:59.352Z,5.07
2023-05-02T21:20:01.297Z,6.60
2023-05-02T21:25:03.354Z,6.97
2023-05-02T21:30:05.224Z,4.70
2023-05-02T21:35:07.022Z,4.43
2023-05-02T21:40:08.732Z,7.18
2023-05-02T21:45:11.302Z,5.13
2023-05-02T21:50:12.735Z,4.60
2023-05-02T21:55:14.234Z,6.20
2023-05-02T22:00:16.117Z,5.88
2023-05-02T22:05:17.592Z,7.05
2023-05-02T22:10:19.234Z,8.40
2023-05-02T22:15:20.899Z,6.50
2023-05-02T22:20:22.882Z,8.23
2023-05-02T22:25:24.385Z,6.63
2023-05-02T22:30:25.903Z,6.45
2023-05-02T22:35:27.620Z,6.60
2023-05-02T22:40:30.426Z,6.22
2023-05-02T22:45:31.860Z,6.85
2023-05-02T22:50:33.871Z,5.43
2023-05-02T22:55:36.879Z,8.60
2023-05-02T23:00:38.281Z,8.30
2023-05-02T23:05:39.779Z,4.55
2023-05-02T23:10:41.166Z,5.35
2023-05-02T23:15:43.470Z,4.57
2023-05-02T23:20:44.962Z,5.20
2023-05-02T23:25:46.474Z,6.90
2023-05-02T23:30:49.018Z,4.78
2023-05-02T23:35:50.526Z,5.30
2023-05-02T23:40:52.262Z,6.70
2023-05-02T23:45:53.736Z,7.28
2023-05-02T23:50:55.227Z,6.72
2023-05-02T23:55:57.580Z,6.10
